QTR461 OMDB-HECA
Flight info
| Callsign | QTR461 |
|---|---|
| Flight time | N/A |
| Altitude | 34000 |
| Route | SENPA2F SENPA N571 ALPOB L768 VATIM L550 NIMAR/N0462F360 L550 NOVPA N697 MENLI L677 CVO DCT |
| Aircraft | A321/M-SDE3FGHIRWY/LB1 |
Departure
| Time | 2026-05-05 19:05 |
|---|---|
| Airport | Dubai International Airport (OMDB) |
Arrival
| Time | N/A |
|---|---|
| Airport | Cairo International Airport (HECA) |
| Time | Latitude | Longitude | Altitude | Speed | Heading |
|---|---|---|---|---|---|
| 2026-05-05 18:44 | 25.24342 | 55.37360 | 48 ft | 0 kts | 212° |
| 2026-05-05 18:57 | 25.24351 | 55.37366 | 48 ft | 2 kts | 211° |
| 2026-05-05 18:57 | 25.24364 | 55.37375 | 48 ft | 2 kts | 212° |
| 2026-05-05 18:57 | 25.24377 | 55.37384 | 48 ft | 2 kts | 212° |
| 2026-05-05 18:57 | 25.24390 | 55.37392 | 48 ft | 2 kts | 212° |
| 2026-05-05 18:58 | 25.24402 | 55.37401 | 48 ft | 2 kts | 212° |
| 2026-05-05 18:58 | 25.24410 | 55.37407 | 48 ft | 2 kts | 208° |
| 2026-05-05 18:58 | 25.24425 | 55.37410 | 48 ft | 2 kts | 172° |
| 2026-05-05 18:58 | 25.24439 | 55.37404 | 48 ft | 2 kts | 143° |
| 2026-05-05 18:59 | 25.24447 | 55.37397 | 49 ft | 0 kts | 124° |
| 2026-05-05 18:59 | 25.24450 | 55.37390 | 49 ft | 0 kts | 121° |
| 2026-05-05 19:01 | 25.24440 | 55.37409 | 48 ft | 9 kts | 116° |
| 2026-05-05 19:01 | 25.24429 | 55.37534 | 44 ft | 21 kts | 88° |
| 2026-05-05 19:01 | 25.24388 | 55.37688 | 41 ft | 21 kts | 121° |
| 2026-05-05 19:02 | 25.24343 | 55.37810 | 41 ft | 15 kts | 70° |
| 2026-05-05 19:02 | 25.24359 | 55.37834 | 41 ft | 0 kts | 37° |
| 2026-05-05 19:02 | 25.24365 | 55.37839 | 41 ft | 2 kts | 37° |
| 2026-05-05 19:02 | 25.24388 | 55.37859 | 40 ft | 5 kts | 37° |
| 2026-05-05 19:03 | 25.24430 | 55.37891 | 38 ft | 8 kts | 33° |
| 2026-05-05 19:03 | 25.24490 | 55.37934 | 36 ft | 11 kts | 33° |
| 2026-05-05 19:03 | 25.24565 | 55.37990 | 34 ft | 14 kts | 34° |
| 2026-05-05 19:03 | 25.24652 | 55.38055 | 31 ft | 16 kts | 32° |
| 2026-05-05 19:04 | 25.24760 | 55.38092 | 28 ft | 17 kts | 331° |
| 2026-05-05 19:04 | 25.24785 | 55.38064 | 28 ft | 0 kts | 304° |
| 2026-05-05 19:04 | 25.24785 | 55.38063 | 28 ft | 0 kts | 303° |
| 2026-05-05 19:04 | 25.24787 | 55.38061 | 28 ft | 2 kts | 303° |
| 2026-05-05 19:05 | 25.24919 | 55.37823 | 30 ft | 73 kts | 301° |
| 2026-05-05 19:05 | 25.25305 | 55.37129 | 40 ft | 137 kts | 301° |
| 2026-05-05 19:05 | 25.25884 | 55.36097 | 257 ft | 167 kts | 302° |
| 2026-05-05 19:05 | 25.26483 | 55.35026 | 893 ft | 168 kts | 301° |
| 2026-05-05 19:06 | 25.27090 | 55.33926 | 1544 ft | 169 kts | 301° |
| 2026-05-05 19:06 | 25.27697 | 55.32828 | 2086 ft | 171 kts | 301° |
| 2026-05-05 19:06 | 25.28347 | 55.31657 | 2333 ft | 184 kts | 301° |
| 2026-05-05 19:06 | 25.29040 | 55.30411 | 2593 ft | 197 kts | 300° |
| 2026-05-05 19:07 | 25.29578 | 55.28983 | 2851 ft | 210 kts | 283° |
| 2026-05-05 19:07 | 25.29786 | 55.27345 | 3111 ft | 225 kts | 275° |
| 2026-05-05 19:07 | 25.29918 | 55.25535 | 3396 ft | 242 kts | 274° |
| 2026-05-05 19:07 | 25.30043 | 55.23675 | 3972 ft | 247 kts | 274° |
| 2026-05-05 19:08 | 25.30178 | 55.21775 | 4635 ft | 248 kts | 274° |
| 2026-05-05 19:08 | 25.30318 | 55.19888 | 5268 ft | 251 kts | 274° |
| 2026-05-05 19:08 | 25.30366 | 55.17942 | 5686 ft | 263 kts | 268° |
| 2026-05-05 19:08 | 25.30251 | 55.15867 | 6158 ft | 273 kts | 265° |
| 2026-05-05 19:09 | 25.30092 | 55.13786 | 6826 ft | 276 kts | 265° |
| 2026-05-05 19:09 | 25.29924 | 55.11661 | 7510 ft | 278 kts | 265° |
| 2026-05-05 19:09 | 25.29758 | 55.09549 | 8162 ft | 281 kts | 265° |
| 2026-05-05 19:09 | 25.29588 | 55.07384 | 8811 ft | 283 kts | 265° |
| 2026-05-05 19:10 | 25.29421 | 55.05232 | 9435 ft | 286 kts | 265° |
| 2026-05-05 19:10 | 25.29250 | 55.03028 | 10052 ft | 288 kts | 265° |
| 2026-05-05 19:10 | 25.29078 | 55.00816 | 10498 ft | 297 kts | 265° |
| 2026-05-05 19:10 | 25.28896 | 54.98469 | 10764 ft | 312 kts | 265° |
| 2026-05-05 19:11 | 25.28708 | 54.96043 | 11024 ft | 327 kts | 265° |
| 2026-05-05 19:11 | 25.28574 | 54.93471 | 11339 ft | 339 kts | 268° |
| 2026-05-05 19:11 | 25.28498 | 54.90876 | 11874 ft | 343 kts | 268° |
| 2026-05-05 19:11 | 25.28426 | 54.88217 | 12468 ft | 345 kts | 268° |
| 2026-05-05 19:12 | 25.28352 | 54.85544 | 13028 ft | 348 kts | 268° |
| 2026-05-05 19:12 | 25.28275 | 54.82871 | 13571 ft | 351 kts | 268° |
| 2026-05-05 19:12 | 25.28197 | 54.80195 | 14102 ft | 353 kts | 268° |
| 2026-05-05 19:12 | 25.28127 | 54.77459 | 14631 ft | 356 kts | 270° |
| 2026-05-05 19:13 | 25.28265 | 54.74746 | 15138 ft | 359 kts | 277° |
| 2026-05-05 19:13 | 25.28705 | 54.72011 | 15647 ft | 362 kts | 284° |
| 2026-05-05 19:13 | 25.29345 | 54.69343 | 16146 ft | 364 kts | 285° |
| 2026-05-05 19:13 | 25.30041 | 54.66630 | 16638 ft | 367 kts | 286° |
| 2026-05-05 19:14 | 25.30734 | 54.63936 | 17113 ft | 370 kts | 286° |
| 2026-05-05 19:14 | 25.31437 | 54.61182 | 17586 ft | 372 kts | 286° |
| 2026-05-05 19:14 | 25.32130 | 54.58446 | 18044 ft | 375 kts | 285° |
| 2026-05-05 19:14 | 25.32836 | 54.55651 | 18499 ft | 377 kts | 285° |
| 2026-05-05 19:15 | 25.33539 | 54.52877 | 18937 ft | 380 kts | 286° |
| 2026-05-05 19:15 | 25.34295 | 54.50057 | 19373 ft | 382 kts | 287° |
| 2026-05-05 19:15 | 25.35056 | 54.47262 | 19795 ft | 385 kts | 287° |
| 2026-05-05 19:15 | 25.35834 | 54.44409 | 20213 ft | 387 kts | 287° |
| 2026-05-05 19:16 | 25.36601 | 54.41577 | 20616 ft | 390 kts | 287° |
| 2026-05-05 19:16 | 25.37382 | 54.38687 | 21017 ft | 392 kts | 287° |
| 2026-05-05 19:16 | 25.38154 | 54.35819 | 21406 ft | 394 kts | 287° |
| 2026-05-05 19:16 | 25.38939 | 54.32893 | 21788 ft | 396 kts | 286° |
| 2026-05-05 19:17 | 25.39728 | 54.29948 | 22163 ft | 399 kts | 286° |
| 2026-05-05 19:17 | 25.40504 | 54.27026 | 22524 ft | 401 kts | 285° |
| 2026-05-05 19:17 | 25.41258 | 54.24034 | 22884 ft | 403 kts | 285° |
| 2026-05-05 19:17 | 25.41991 | 54.21064 | 23231 ft | 405 kts | 285° |
| 2026-05-05 19:18 | 25.42738 | 54.18035 | 23574 ft | 407 kts | 285° |
| 2026-05-05 19:18 | 25.43480 | 54.15033 | 23904 ft | 410 kts | 285° |
| 2026-05-05 19:18 | 25.44227 | 54.12017 | 24227 ft | 412 kts | 285° |
| 2026-05-05 19:18 | 25.44988 | 54.08938 | 24548 ft | 414 kts | 285° |
| 2026-05-05 19:19 | 25.45728 | 54.05888 | 24856 ft | 416 kts | 285° |
| 2026-05-05 19:19 | 25.46486 | 54.02743 | 25165 ft | 418 kts | 285° |
| 2026-05-05 19:19 | 25.47237 | 53.99616 | 25464 ft | 419 kts | 285° |
| 2026-05-05 19:19 | 25.47994 | 53.96464 | 25759 ft | 421 kts | 285° |
| 2026-05-05 19:20 | 25.48741 | 53.93354 | 26046 ft | 423 kts | 285° |
| 2026-05-05 19:20 | 25.49500 | 53.90185 | 26327 ft | 425 kts | 285° |
| 2026-05-05 19:20 | 25.50252 | 53.87044 | 26599 ft | 427 kts | 285° |
| 2026-05-05 19:20 | 25.51016 | 53.83847 | 26870 ft | 429 kts | 285° |
| 2026-05-05 19:21 | 25.51772 | 53.80681 | 27133 ft | 430 kts | 285° |
| 2026-05-05 19:21 | 25.52542 | 53.77457 | 27393 ft | 432 kts | 285° |
| 2026-05-05 19:21 | 25.53305 | 53.74265 | 27645 ft | 434 kts | 285° |
| 2026-05-05 19:21 | 25.54085 | 53.71016 | 27895 ft | 436 kts | 285° |
| 2026-05-05 19:22 | 25.54858 | 53.67796 | 28137 ft | 437 kts | 285° |
| 2026-05-05 19:22 | 25.55643 | 53.64520 | 28376 ft | 439 kts | 285° |
| 2026-05-05 19:22 | 25.56418 | 53.61279 | 28607 ft | 440 kts | 285° |
| 2026-05-05 19:22 | 25.57205 | 53.57978 | 28836 ft | 442 kts | 285° |
| 2026-05-05 19:23 | 25.57982 | 53.54711 | 29057 ft | 443 kts | 285° |
| 2026-05-05 19:23 | 25.58773 | 53.51386 | 29278 ft | 445 kts | 285° |
| 2026-05-05 19:23 | 25.59553 | 53.48098 | 29486 ft | 446 kts | 285° |
| 2026-05-05 19:23 | 25.60336 | 53.44796 | 29691 ft | 448 kts | 285° |
| 2026-05-05 19:24 | 25.61132 | 53.41439 | 29925 ft | 449 kts | 285° |
| 2026-05-05 19:24 | 25.61917 | 53.38129 | 30210 ft | 448 kts | 285° |
| 2026-05-05 19:24 | 25.62710 | 53.34782 | 30500 ft | 447 kts | 284° |
| 2026-05-05 19:24 | 25.63490 | 53.31472 | 30771 ft | 446 kts | 284° |
| 2026-05-05 19:25 | 25.64266 | 53.28170 | 31028 ft | 446 kts | 284° |
| 2026-05-05 19:25 | 25.65049 | 53.24832 | 31282 ft | 445 kts | 284° |
| 2026-05-05 19:25 | 25.65824 | 53.21529 | 31529 ft | 445 kts | 284° |
| 2026-05-05 19:25 | 25.66594 | 53.18245 | 31772 ft | 444 kts | 284° |
| 2026-05-05 19:26 | 25.67374 | 53.14917 | 32014 ft | 444 kts | 284° |
| 2026-05-05 19:26 | 25.68141 | 53.11639 | 32242 ft | 443 kts | 284° |
| 2026-05-05 19:26 | 25.68920 | 53.08315 | 32440 ft | 444 kts | 285° |
| 2026-05-05 19:26 | 25.69771 | 53.05056 | 32612 ft | 445 kts | 288° |
| 2026-05-05 19:27 | 25.70797 | 53.01801 | 32785 ft | 445 kts | 291° |
| 2026-05-05 19:27 | 25.71972 | 52.98656 | 32956 ft | 446 kts | 294° |
| 2026-05-05 19:27 | 25.73327 | 52.95541 | 33126 ft | 447 kts | 297° |
| 2026-05-05 19:27 | 25.74749 | 52.92511 | 33292 ft | 447 kts | 298° |
| 2026-05-05 19:28 | 25.76207 | 52.89441 | 33455 ft | 448 kts | 298° |
| 2026-05-05 19:28 | 25.77646 | 52.86410 | 33612 ft | 449 kts | 298° |
| 2026-05-05 19:28 | 25.79106 | 52.83329 | 33770 ft | 449 kts | 298° |
| 2026-05-05 19:28 | 25.80545 | 52.80285 | 33922 ft | 450 kts | 298° |
| 2026-05-05 19:29 | 25.83445 | 52.74134 | 34011 ft | 451 kts | 297° |
| 2026-05-05 19:29 | 25.86344 | 52.67970 | 34018 ft | 451 kts | 297° |
| 2026-05-05 19:30 | 25.89240 | 52.61804 | 34020 ft | 451 kts | 297° |
| 2026-05-05 19:30 | 25.92040 | 52.55620 | 34020 ft | 451 kts | 296° |
| 2026-05-05 19:31 | 25.94778 | 52.49363 | 34020 ft | 451 kts | 296° |
| 2026-05-05 19:31 | 25.97523 | 52.43111 | 34020 ft | 451 kts | 296° |
| 2026-05-05 19:32 | 26.00286 | 52.36867 | 34020 ft | 451 kts | 297° |
| 2026-05-05 19:32 | 26.03075 | 52.30623 | 34020 ft | 451 kts | 296° |
| 2026-05-05 19:33 | 26.05854 | 52.24380 | 34020 ft | 451 kts | 296° |
| 2026-05-05 19:33 | 26.08631 | 52.18139 | 34020 ft | 451 kts | 296° |
| 2026-05-05 19:34 | 26.11415 | 52.11900 | 34020 ft | 451 kts | 296° |
| 2026-05-05 19:35 | 26.15586 | 52.02555 | 34020 ft | 451 kts | 296° |
| 2026-05-05 19:35 | 26.18376 | 51.96302 | 34020 ft | 451 kts | 297° |
| 2026-05-05 19:36 | 26.21174 | 51.90068 | 34020 ft | 451 kts | 296° |
| 2026-05-05 19:36 | 26.23924 | 51.83813 | 34020 ft | 451 kts | 296° |
| 2026-05-05 19:37 | 26.26688 | 51.77558 | 34020 ft | 451 kts | 296° |
| 2026-05-05 19:37 | 26.29456 | 51.71360 | 34020 ft | 451 kts | 296° |
| 2026-05-05 19:38 | 26.32243 | 51.65101 | 34020 ft | 451 kts | 296° |
| 2026-05-05 19:38 | 26.35031 | 51.58849 | 34020 ft | 451 kts | 296° |
| 2026-05-05 19:39 | 26.37732 | 51.52555 | 34020 ft | 451 kts | 293° |
| 2026-05-05 19:39 | 26.39944 | 51.46028 | 34020 ft | 451 kts | 290° |
| 2026-05-05 19:40 | 26.42027 | 51.39441 | 34020 ft | 451 kts | 290° |
| 2026-05-05 19:40 | 26.44115 | 51.32881 | 34020 ft | 451 kts | 289° |
| 2026-05-05 19:41 | 26.46213 | 51.26295 | 34020 ft | 451 kts | 289° |
| 2026-05-05 19:41 | 26.48316 | 51.19713 | 34020 ft | 451 kts | 289° |
| 2026-05-05 19:42 | 26.50413 | 51.13134 | 34020 ft | 451 kts | 289° |
| 2026-05-05 19:42 | 26.52506 | 51.06546 | 34020 ft | 451 kts | 289° |
| 2026-05-05 19:43 | 26.54590 | 50.99973 | 34020 ft | 451 kts | 289° |
| 2026-05-05 19:43 | 26.56673 | 50.93391 | 34020 ft | 451 kts | 289° |
| 2026-05-05 19:44 | 26.58741 | 50.86795 | 34020 ft | 451 kts | 289° |
| 2026-05-05 19:44 | 26.60793 | 50.80166 | 34020 ft | 451 kts | 289° |
| 2026-05-05 19:45 | 26.62827 | 50.73582 | 34020 ft | 451 kts | 289° |
| 2026-05-05 19:45 | 26.64861 | 50.66959 | 34020 ft | 451 kts | 289° |
| 2026-05-05 19:46 | 26.66830 | 50.60316 | 34020 ft | 451 kts | 288° |
| 2026-05-05 19:46 | 26.68790 | 50.53667 | 34020 ft | 451 kts | 288° |
| 2026-05-05 19:47 | 26.70693 | 50.47052 | 34020 ft | 451 kts | 287° |
| 2026-05-05 19:47 | 26.72433 | 50.40326 | 34020 ft | 451 kts | 286° |
| 2026-05-05 19:48 | 26.74156 | 50.33590 | 34020 ft | 451 kts | 285° |
| 2026-05-05 19:48 | 26.75897 | 50.26883 | 34020 ft | 451 kts | 288° |
| 2026-05-05 19:49 | 26.77871 | 50.20217 | 34020 ft | 451 kts | 288° |
| 2026-05-05 19:49 | 26.79850 | 50.13610 | 34020 ft | 451 kts | 288° |
| 2026-05-05 19:50 | 26.81832 | 50.06955 | 34020 ft | 451 kts | 288° |
| 2026-05-05 19:50 | 26.83798 | 50.00335 | 34020 ft | 451 kts | 288° |
| 2026-05-05 19:51 | 26.85775 | 49.93677 | 34020 ft | 451 kts | 288° |
| 2026-05-05 19:51 | 26.87748 | 49.87015 | 34020 ft | 451 kts | 288° |
| 2026-05-05 19:52 | 26.89703 | 49.80399 | 34020 ft | 451 kts | 288° |
| 2026-05-05 19:52 | 26.91669 | 49.73732 | 34020 ft | 451 kts | 288° |
| 2026-05-05 19:53 | 26.93631 | 49.67063 | 34020 ft | 451 kts | 288° |
| 2026-05-05 19:53 | 26.95578 | 49.60433 | 34020 ft | 451 kts | 288° |
| 2026-05-05 19:54 | 26.97524 | 49.53793 | 34020 ft | 451 kts | 288° |
| 2026-05-05 19:54 | 26.99479 | 49.47107 | 34020 ft | 451 kts | 289° |
| 2026-05-05 19:55 | 27.01741 | 49.40598 | 34020 ft | 451 kts | 295° |
| 2026-05-05 19:55 | 27.04619 | 49.34386 | 34021 ft | 451 kts | 299° |
| 2026-05-05 19:56 | 27.07697 | 49.28271 | 34021 ft | 451 kts | 299° |
| 2026-05-05 19:56 | 27.10780 | 49.22151 | 34020 ft | 451 kts | 300° |
| 2026-05-05 19:57 | 27.13870 | 49.16054 | 34020 ft | 451 kts | 299° |
| 2026-05-05 19:57 | 27.16933 | 49.09962 | 34020 ft | 451 kts | 299° |
| 2026-05-05 19:58 | 27.20004 | 49.03822 | 34020 ft | 451 kts | 299° |
| 2026-05-05 19:58 | 27.23050 | 48.97732 | 34020 ft | 451 kts | 299° |
| 2026-05-05 19:59 | 27.26120 | 48.91595 | 34020 ft | 451 kts | 299° |
| 2026-05-05 19:59 | 27.29186 | 48.85447 | 34020 ft | 450 kts | 299° |
| 2026-05-05 20:00 | 27.32221 | 48.79345 | 34020 ft | 450 kts | 299° |
| 2026-05-05 20:00 | 27.35282 | 48.73182 | 34020 ft | 450 kts | 299° |
| 2026-05-05 20:01 | 27.38313 | 48.67067 | 34020 ft | 450 kts | 299° |
| 2026-05-05 20:01 | 27.41363 | 48.60905 | 34020 ft | 450 kts | 299° |
| 2026-05-05 20:02 | 27.44392 | 48.54778 | 34020 ft | 450 kts | 299° |
| 2026-05-05 20:02 | 27.47419 | 48.48642 | 34020 ft | 450 kts | 299° |
| 2026-05-05 20:03 | 27.50466 | 48.42458 | 34020 ft | 450 kts | 299° |
| 2026-05-05 20:03 | 27.53482 | 48.36322 | 34020 ft | 450 kts | 299° |
| 2026-05-05 20:04 | 27.56490 | 48.30178 | 34020 ft | 450 kts | 298° |
| 2026-05-05 20:04 | 27.59518 | 48.24004 | 34020 ft | 450 kts | 299° |
| 2026-05-05 20:05 | 27.62552 | 48.17836 | 34020 ft | 450 kts | 299° |
| 2026-05-05 20:05 | 27.65581 | 48.11660 | 34020 ft | 450 kts | 299° |
| 2026-05-05 20:06 | 27.68583 | 48.05529 | 34020 ft | 450 kts | 299° |
| 2026-05-05 20:06 | 27.71602 | 47.99353 | 34020 ft | 450 kts | 299° |
| 2026-05-05 20:07 | 27.74617 | 47.93167 | 34020 ft | 450 kts | 299° |
| 2026-05-05 20:07 | 27.77624 | 47.86982 | 34020 ft | 450 kts | 299° |
| 2026-05-05 20:08 | 27.80638 | 47.80775 | 34020 ft | 450 kts | 299° |
| 2026-05-05 20:08 | 27.83538 | 47.74579 | 34019 ft | 450 kts | 295° |
| 2026-05-05 20:09 | 27.85911 | 47.68042 | 34019 ft | 450 kts | 290° |
| 2026-05-05 20:09 | 27.87981 | 47.61380 | 34020 ft | 450 kts | 289° |
| 2026-05-05 20:10 | 27.90038 | 47.54711 | 34020 ft | 450 kts | 289° |
| 2026-05-05 20:10 | 27.92108 | 47.48009 | 34020 ft | 450 kts | 289° |
| 2026-05-05 20:11 | 27.94152 | 47.41388 | 34020 ft | 450 kts | 289° |
| 2026-05-05 20:11 | 27.96209 | 47.34717 | 34020 ft | 450 kts | 289° |
| 2026-05-05 20:12 | 27.98257 | 47.28038 | 34020 ft | 450 kts | 289° |
| 2026-05-05 20:12 | 28.00302 | 47.21363 | 34020 ft | 450 kts | 289° |
| 2026-05-05 20:13 | 28.02348 | 47.14684 | 34020 ft | 450 kts | 289° |
| 2026-05-05 20:13 | 28.04391 | 47.08005 | 34020 ft | 450 kts | 289° |
| 2026-05-05 20:14 | 28.06432 | 47.01324 | 34020 ft | 450 kts | 289° |
| 2026-05-05 20:14 | 28.08470 | 46.94640 | 34020 ft | 450 kts | 289° |
| 2026-05-05 20:15 | 28.10509 | 46.87949 | 34019 ft | 450 kts | 289° |
| 2026-05-05 20:15 | 28.12716 | 46.81332 | 34020 ft | 450 kts | 291° |
| 2026-05-05 20:16 | 28.14955 | 46.74728 | 34020 ft | 450 kts | 291° |
| 2026-05-05 20:16 | 28.17173 | 46.68109 | 34020 ft | 450 kts | 291° |
| 2026-05-05 20:17 | 28.19377 | 46.61484 | 34020 ft | 450 kts | 291° |
| 2026-05-05 20:17 | 28.21574 | 46.54860 | 34020 ft | 450 kts | 291° |
| 2026-05-05 20:18 | 28.23751 | 46.48279 | 34020 ft | 450 kts | 291° |
| 2026-05-05 20:18 | 28.25940 | 46.41649 | 34020 ft | 450 kts | 291° |
| 2026-05-05 20:19 | 28.28125 | 46.35015 | 34020 ft | 450 kts | 291° |
| 2026-05-05 20:19 | 28.30301 | 46.28367 | 34020 ft | 450 kts | 290° |
| 2026-05-05 20:20 | 28.32474 | 46.21727 | 34020 ft | 450 kts | 290° |
| 2026-05-05 20:20 | 28.34648 | 46.15084 | 34020 ft | 450 kts | 290° |
| 2026-05-05 20:21 | 28.36948 | 46.08496 | 34020 ft | 450 kts | 293° |
| 2026-05-05 20:21 | 28.39387 | 46.01973 | 34020 ft | 450 kts | 293° |
| 2026-05-05 20:22 | 28.41823 | 45.95446 | 34020 ft | 450 kts | 293° |
| 2026-05-05 20:22 | 28.44251 | 45.88916 | 34020 ft | 450 kts | 293° |
| 2026-05-05 20:23 | 28.46674 | 45.82379 | 34020 ft | 450 kts | 293° |
| 2026-05-05 20:23 | 28.49094 | 45.75840 | 34020 ft | 450 kts | 293° |
| 2026-05-05 20:24 | 28.51509 | 45.69299 | 34020 ft | 450 kts | 293° |
| 2026-05-05 20:24 | 28.53921 | 45.62756 | 34020 ft | 450 kts | 293° |
| 2026-05-05 20:25 | 28.56332 | 45.56204 | 34020 ft | 450 kts | 293° |
| 2026-05-05 20:25 | 28.58739 | 45.49653 | 34020 ft | 450 kts | 293° |
| 2026-05-05 20:26 | 28.61141 | 45.43102 | 34020 ft | 450 kts | 293° |
| 2026-05-05 20:26 | 28.63540 | 45.36546 | 34020 ft | 450 kts | 293° |
| 2026-05-05 20:27 | 28.65919 | 45.30018 | 34020 ft | 450 kts | 292° |
| 2026-05-05 20:27 | 28.68306 | 45.23449 | 34020 ft | 450 kts | 292° |
| 2026-05-05 20:28 | 28.70697 | 45.16875 | 34020 ft | 450 kts | 292° |
| 2026-05-05 20:28 | 28.73084 | 45.10302 | 34020 ft | 450 kts | 292° |
| 2026-05-05 20:29 | 28.75467 | 45.03733 | 34020 ft | 450 kts | 292° |
| 2026-05-05 20:29 | 28.77848 | 44.97156 | 34020 ft | 450 kts | 292° |
| 2026-05-05 20:30 | 28.80222 | 44.90584 | 34020 ft | 450 kts | 292° |
| 2026-05-05 20:30 | 28.82598 | 44.83997 | 34020 ft | 450 kts | 292° |
| 2026-05-05 20:31 | 28.84700 | 44.77348 | 34019 ft | 450 kts | 287° |
| 2026-05-05 20:31 | 28.86147 | 44.70418 | 34019 ft | 450 kts | 280° |
| 2026-05-05 20:32 | 28.86919 | 44.63359 | 34020 ft | 450 kts | 275° |
| 2026-05-05 20:32 | 28.87476 | 44.56267 | 34020 ft | 450 kts | 275° |
| 2026-05-05 20:33 | 28.88030 | 44.49178 | 34020 ft | 450 kts | 275° |
| 2026-05-05 20:33 | 28.88586 | 44.42090 | 34020 ft | 450 kts | 275° |
| 2026-05-05 20:34 | 28.89142 | 44.35001 | 34020 ft | 450 kts | 275° |
| 2026-05-05 20:34 | 28.89694 | 44.27898 | 34020 ft | 450 kts | 275° |
| 2026-05-05 20:35 | 28.90242 | 44.20806 | 34020 ft | 450 kts | 275° |
| 2026-05-05 20:35 | 28.90784 | 44.13748 | 34020 ft | 450 kts | 275° |
| 2026-05-05 20:36 | 28.91326 | 44.06645 | 34020 ft | 449 kts | 275° |
| 2026-05-05 20:36 | 28.91865 | 43.99549 | 34020 ft | 449 kts | 275° |
| 2026-05-05 20:37 | 28.92399 | 43.92453 | 34020 ft | 449 kts | 275° |
| 2026-05-05 20:37 | 28.92930 | 43.85358 | 34020 ft | 449 kts | 275° |
| 2026-05-05 20:38 | 28.93457 | 43.78260 | 34020 ft | 449 kts | 275° |
| 2026-05-05 20:38 | 28.93976 | 43.71219 | 34020 ft | 449 kts | 275° |
| 2026-05-05 20:39 | 28.94496 | 43.64114 | 34020 ft | 449 kts | 275° |
| 2026-05-05 20:39 | 28.95012 | 43.57005 | 34020 ft | 449 kts | 275° |
| 2026-05-05 20:40 | 28.95524 | 43.49893 | 34020 ft | 449 kts | 275° |
| 2026-05-05 20:40 | 28.96029 | 43.42833 | 34020 ft | 449 kts | 275° |
| 2026-05-05 20:41 | 28.96533 | 43.35739 | 34020 ft | 449 kts | 275° |
| 2026-05-05 20:41 | 28.97032 | 43.28627 | 34020 ft | 449 kts | 274° |
| 2026-05-05 20:42 | 28.97527 | 43.21527 | 34020 ft | 449 kts | 274° |
| 2026-05-05 20:42 | 28.98019 | 43.14426 | 34020 ft | 449 kts | 274° |
| 2026-05-05 20:43 | 28.98508 | 43.07326 | 34020 ft | 449 kts | 274° |
| 2026-05-05 20:43 | 28.98993 | 43.00228 | 34020 ft | 449 kts | 274° |
| 2026-05-05 20:44 | 28.99474 | 42.93126 | 34020 ft | 449 kts | 274° |
| 2026-05-05 20:44 | 28.99951 | 42.86025 | 34020 ft | 449 kts | 274° |
| 2026-05-05 20:45 | 29.00659 | 42.75389 | 34020 ft | 449 kts | 274° |
| 2026-05-05 20:45 | 29.01128 | 42.68282 | 34020 ft | 449 kts | 274° |
| 2026-05-05 20:46 | 29.01592 | 42.61178 | 34020 ft | 449 kts | 274° |
| 2026-05-05 20:46 | 29.02053 | 42.54076 | 34020 ft | 449 kts | 274° |
| 2026-05-05 20:47 | 29.02509 | 42.46974 | 34020 ft | 449 kts | 274° |
| 2026-05-05 20:47 | 29.02959 | 42.39922 | 34019 ft | 449 kts | 274° |
| 2026-05-05 20:48 | 29.03410 | 42.32802 | 34020 ft | 449 kts | 274° |
| 2026-05-05 20:48 | 29.03857 | 42.25655 | 34020 ft | 449 kts | 274° |
| 2026-05-05 20:49 | 29.04298 | 42.18552 | 34020 ft | 449 kts | 274° |
| 2026-05-05 20:49 | 29.04736 | 42.11447 | 34020 ft | 449 kts | 274° |
| 2026-05-05 20:50 | 29.05167 | 42.04393 | 34020 ft | 449 kts | 274° |
| 2026-05-05 20:50 | 29.05597 | 41.97285 | 34020 ft | 449 kts | 274° |
| 2026-05-05 20:51 | 29.06024 | 41.90146 | 34020 ft | 449 kts | 274° |
| 2026-05-05 20:51 | 29.06443 | 41.83035 | 34020 ft | 449 kts | 274° |
| 2026-05-05 20:52 | 29.06860 | 41.75924 | 34020 ft | 449 kts | 274° |
| 2026-05-05 20:52 | 29.07270 | 41.68863 | 34020 ft | 449 kts | 274° |
| 2026-05-05 20:53 | 29.07679 | 41.61750 | 34020 ft | 449 kts | 274° |
| 2026-05-05 20:53 | 29.08085 | 41.54634 | 34020 ft | 449 kts | 274° |
| 2026-05-05 20:54 | 29.08487 | 41.47525 | 34020 ft | 449 kts | 274° |
| 2026-05-05 20:54 | 29.08885 | 41.40415 | 34019 ft | 449 kts | 274° |
| 2026-05-05 20:55 | 29.09282 | 41.33288 | 34020 ft | 449 kts | 273° |
| 2026-05-05 20:55 | 29.09675 | 41.26174 | 34020 ft | 449 kts | 273° |
| 2026-05-05 20:56 | 29.10063 | 41.19105 | 34020 ft | 449 kts | 274° |
| 2026-05-05 20:56 | 29.10476 | 41.11995 | 34020 ft | 449 kts | 274° |
| 2026-05-05 20:57 | 29.10874 | 41.04886 | 34020 ft | 449 kts | 274° |
| 2026-05-05 20:57 | 29.11257 | 40.97771 | 34020 ft | 449 kts | 273° |
| 2026-05-05 20:58 | 29.11631 | 40.90659 | 34020 ft | 449 kts | 273° |
| 2026-05-05 20:58 | 29.12001 | 40.83548 | 34020 ft | 449 kts | 273° |
| 2026-05-05 20:59 | 29.12365 | 40.76432 | 34020 ft | 449 kts | 273° |
| 2026-05-05 20:59 | 29.12724 | 40.69319 | 34020 ft | 449 kts | 273° |
| 2026-05-05 21:00 | 29.13077 | 40.62254 | 34020 ft | 449 kts | 273° |
| 2026-05-05 21:00 | 29.13225 | 40.55131 | 34021 ft | 449 kts | 269° |
| 2026-05-05 21:01 | 29.13011 | 40.48010 | 34021 ft | 449 kts | 268° |
| 2026-05-05 21:01 | 29.12771 | 40.40892 | 34021 ft | 449 kts | 268° |
| 2026-05-05 21:02 | 29.12529 | 40.33769 | 34021 ft | 449 kts | 268° |
| 2026-05-05 21:02 | 29.12287 | 40.26654 | 34020 ft | 449 kts | 268° |
| 2026-05-05 21:03 | 29.12040 | 40.19539 | 34020 ft | 449 kts | 268° |
| 2026-05-05 21:03 | 29.11790 | 40.12424 | 34020 ft | 449 kts | 268° |
| 2026-05-05 21:04 | 29.11533 | 40.05309 | 34020 ft | 449 kts | 268° |
| 2026-05-05 21:04 | 29.11272 | 39.98195 | 34020 ft | 449 kts | 268° |
| 2026-05-05 21:05 | 29.11022 | 39.91078 | 34019 ft | 449 kts | 269° |
| 2026-05-05 21:05 | 29.11030 | 39.84006 | 34020 ft | 449 kts | 270° |
| 2026-05-05 21:06 | 29.11070 | 39.76888 | 34020 ft | 449 kts | 270° |
| 2026-05-05 21:06 | 29.11100 | 39.69768 | 34020 ft | 449 kts | 270° |
| 2026-05-05 21:07 | 29.11123 | 39.62651 | 34020 ft | 449 kts | 270° |
| 2026-05-05 21:07 | 29.11140 | 39.55533 | 34020 ft | 449 kts | 270° |
| 2026-05-05 21:08 | 29.11153 | 39.48414 | 34021 ft | 449 kts | 270° |
| 2026-05-05 21:08 | 29.11162 | 39.41298 | 34021 ft | 449 kts | 270° |
| 2026-05-05 21:09 | 29.11167 | 39.34172 | 34021 ft | 448 kts | 270° |
| 2026-05-05 21:09 | 29.11167 | 39.27054 | 34020 ft | 448 kts | 270° |
| 2026-05-05 21:10 | 29.11163 | 39.19931 | 34020 ft | 448 kts | 270° |
| 2026-05-05 21:10 | 29.11155 | 39.12849 | 34020 ft | 448 kts | 270° |
| 2026-05-05 21:11 | 29.11143 | 39.05722 | 34020 ft | 448 kts | 270° |
| 2026-05-05 21:11 | 29.11124 | 38.98602 | 34020 ft | 448 kts | 270° |
| 2026-05-05 21:12 | 29.11106 | 38.91486 | 34020 ft | 448 kts | 270° |
| 2026-05-05 21:12 | 29.11089 | 38.84371 | 34020 ft | 448 kts | 270° |
| 2026-05-05 21:13 | 29.11061 | 38.77255 | 34020 ft | 448 kts | 270° |
| 2026-05-05 21:13 | 29.11027 | 38.70190 | 34020 ft | 448 kts | 270° |
| 2026-05-05 21:14 | 29.10986 | 38.63075 | 34020 ft | 448 kts | 270° |
| 2026-05-05 21:14 | 29.10941 | 38.55962 | 34020 ft | 448 kts | 270° |
| 2026-05-05 21:15 | 29.10891 | 38.48841 | 34021 ft | 448 kts | 270° |
| 2026-05-05 21:15 | 29.10835 | 38.41725 | 34021 ft | 448 kts | 270° |
| 2026-05-05 21:16 | 29.10785 | 38.34610 | 34021 ft | 448 kts | 269° |
| 2026-05-05 21:16 | 29.10737 | 38.27490 | 34020 ft | 448 kts | 269° |
| 2026-05-05 21:17 | 29.10679 | 38.20378 | 34020 ft | 448 kts | 269° |
| 2026-05-05 21:17 | 29.10615 | 38.13265 | 34020 ft | 448 kts | 269° |
| 2026-05-05 21:18 | 29.10545 | 38.06155 | 34020 ft | 448 kts | 269° |
| 2026-05-05 21:18 | 29.10471 | 37.99045 | 34020 ft | 448 kts | 269° |
| 2026-05-05 21:19 | 29.10394 | 37.91936 | 34020 ft | 448 kts | 269° |
| 2026-05-05 21:19 | 29.10312 | 37.84827 | 34020 ft | 448 kts | 269° |
| 2026-05-05 21:20 | 29.10227 | 37.77768 | 34020 ft | 448 kts | 269° |
| 2026-05-05 21:20 | 29.10136 | 37.70657 | 34020 ft | 448 kts | 269° |
| 2026-05-05 21:21 | 29.10040 | 37.63546 | 34020 ft | 448 kts | 269° |
| 2026-05-05 21:21 | 29.09939 | 37.56436 | 34020 ft | 448 kts | 269° |
| 2026-05-05 21:22 | 29.09844 | 37.49326 | 34021 ft | 448 kts | 270° |
| 2026-05-05 21:22 | 29.09804 | 37.42217 | 34021 ft | 448 kts | 270° |
| 2026-05-05 21:23 | 29.09761 | 37.35109 | 34021 ft | 448 kts | 270° |
| 2026-05-05 21:23 | 29.09707 | 37.27978 | 34020 ft | 448 kts | 269° |
| 2026-05-05 21:24 | 29.09646 | 37.20868 | 34020 ft | 448 kts | 269° |
| 2026-05-05 21:24 | 29.09580 | 37.13810 | 34020 ft | 448 kts | 269° |
| 2026-05-05 21:25 | 29.09511 | 37.06700 | 34020 ft | 448 kts | 269° |
| 2026-05-05 21:25 | 29.09437 | 36.99585 | 34020 ft | 448 kts | 269° |
| 2026-05-05 21:26 | 29.09360 | 36.92476 | 34020 ft | 448 kts | 269° |
| 2026-05-05 21:26 | 29.09278 | 36.85364 | 34020 ft | 448 kts | 269° |
| 2026-05-05 21:27 | 29.09192 | 36.78254 | 34020 ft | 448 kts | 269° |
| 2026-05-05 21:27 | 29.09103 | 36.71196 | 34020 ft | 448 kts | 269° |
| 2026-05-05 21:28 | 29.09008 | 36.64088 | 34020 ft | 448 kts | 269° |
| 2026-05-05 21:28 | 29.08907 | 36.56983 | 34020 ft | 448 kts | 269° |
| 2026-05-05 21:29 | 29.08804 | 36.49870 | 34021 ft | 448 kts | 269° |
| 2026-05-05 21:29 | 29.08663 | 36.42767 | 34021 ft | 448 kts | 269° |
| 2026-05-05 21:30 | 29.08473 | 36.35662 | 34021 ft | 448 kts | 268° |
| 2026-05-05 21:30 | 29.08276 | 36.28546 | 34020 ft | 448 kts | 268° |
| 2026-05-05 21:31 | 29.08078 | 36.21493 | 34020 ft | 448 kts | 268° |
| 2026-05-05 21:31 | 29.07876 | 36.14384 | 34020 ft | 448 kts | 268° |
| 2026-05-05 21:32 | 29.07669 | 36.07280 | 34020 ft | 448 kts | 268° |
| 2026-05-05 21:32 | 29.07459 | 36.00179 | 34020 ft | 448 kts | 268° |
| 2026-05-05 21:33 | 29.07246 | 35.93074 | 34020 ft | 448 kts | 268° |
| 2026-05-05 21:33 | 29.07030 | 35.86020 | 34020 ft | 448 kts | 268° |
| 2026-05-05 21:34 | 29.06808 | 35.78918 | 34020 ft | 448 kts | 268° |
| 2026-05-05 21:34 | 29.06584 | 35.71818 | 34020 ft | 448 kts | 268° |
| 2026-05-05 21:35 | 29.06355 | 35.64720 | 34020 ft | 448 kts | 268° |
| 2026-05-05 21:35 | 29.06122 | 35.57619 | 34020 ft | 448 kts | 268° |
| 2026-05-05 21:36 | 29.05886 | 35.50523 | 34021 ft | 448 kts | 268° |
| 2026-05-05 21:36 | 29.05648 | 35.43476 | 34021 ft | 448 kts | 268° |
| 2026-05-05 21:37 | 29.05404 | 35.36382 | 34021 ft | 448 kts | 268° |
| 2026-05-05 21:37 | 29.05156 | 35.29277 | 34020 ft | 447 kts | 268° |
| 2026-05-05 21:38 | 29.04904 | 35.22183 | 34020 ft | 447 kts | 267° |
| 2026-05-05 21:38 | 29.04648 | 35.15088 | 34020 ft | 447 kts | 267° |
| 2026-05-05 21:39 | 29.04390 | 35.08038 | 34020 ft | 447 kts | 267° |
| 2026-05-05 21:39 | 29.04124 | 35.00942 | 34020 ft | 447 kts | 267° |
| 2026-05-05 21:40 | 29.03853 | 34.93844 | 34020 ft | 447 kts | 267° |
| 2026-05-05 21:40 | 29.03579 | 34.86744 | 34020 ft | 447 kts | 267° |
| 2026-05-05 21:41 | 29.03400 | 34.79690 | 34020 ft | 447 kts | 269° |
| 2026-05-05 21:41 | 29.03528 | 34.72581 | 34019 ft | 447 kts | 274° |
| 2026-05-05 21:42 | 29.04303 | 34.65585 | 34019 ft | 447 kts | 281° |
| 2026-05-05 21:42 | 29.05759 | 34.58686 | 34019 ft | 447 kts | 287° |
| 2026-05-05 21:43 | 29.07706 | 34.51939 | 34020 ft | 447 kts | 289° |
| 2026-05-05 21:43 | 29.09693 | 34.45206 | 34021 ft | 447 kts | 289° |
| 2026-05-05 21:44 | 29.11669 | 34.38474 | 34021 ft | 447 kts | 289° |
| 2026-05-05 21:44 | 29.13623 | 34.31775 | 34020 ft | 447 kts | 288° |